sensor_id;sensor_type;location;lat;lon;timestamp;pressure;altitude;pressure_sealevel;temperature;humidity
9905;BME280;4991;43.566;27.820;2023-03-16T00:02:10;97813.72;;;7.50;100.00
9905;BME280;4991;43.566;27.820;2023-03-16T00:04:36;97818.34;;;7.49;100.00
9905;BME280;4991;43.566;27.820;2023-03-16T00:07:04;97817.94;;;7.56;100.00
9905;BME280;4991;43.566;27.820;2023-03-16T00:09:30;97818.41;;;7.58;100.00
9905;BME280;4991;43.566;27.820;2023-03-16T00:12:02;97817.69;;;7.66;100.00
9905;BME280;4991;43.566;27.820;2023-03-16T00:14:28;97812.53;;;7.64;100.00
9905;BME280;4991;43.566;27.820;2023-03-16T00:16:54;97803.94;;;7.62;100.00
9905;BME280;4991;43.566;27.820;2023-03-16T00:19:20;97800.63;;;7.65;100.00
9905;BME280;4991;43.566;27.820;2023-03-16T00:21:52;97804.25;;;7.61;100.00
9905;BME280;4991;43.566;27.820;2023-03-16T00:24:19;97808.94;;;7.69;100.00
9905;BME280;4991;43.566;27.820;2023-03-16T00:26:45;97800.63;;;7.65;100.00
9905;BME280;4991;43.566;27.820;2023-03-16T00:29:11;97809.56;;;7.66;100.00
9905;BME280;4991;43.566;27.820;2023-03-16T00:31:38;97810.97;;;7.63;100.00
9905;BME280;4991;43.566;27.820;2023-03-16T00:34:04;97817.19;;;7.64;100.00
9905;BME280;4991;43.566;27.820;2023-03-16T00:36:30;97821.28;;;7.61;100.00
9905;BME280;4991;43.566;27.820;2023-03-16T00:38:58;97819.16;;;7.72;100.00
9905;BME280;4991;43.566;27.820;2023-03-16T00:41:23;97821.28;;;7.83;100.00
9905;BME280;4991;43.566;27.820;2023-03-16T00:43:49;97814.56;;;7.81;100.00
9905;BME280;4991;43.566;27.820;2023-03-16T00:46:16;97818.47;;;7.88;100.00
9905;BME280;4991;43.566;27.820;2023-03-16T00:48:44;97820.47;;;7.83;100.00
9905;BME280;4991;43.566;27.820;2023-03-16T00:51:13;97812.84;;;7.85;100.00
9905;BME280;4991;43.566;27.820;2023-03-16T00:53:41;97815.63;;;7.94;100.00
9905;BME280;4991;43.566;27.820;2023-03-16T00:56:08;97823.44;;;7.95;100.00
9905;BME280;4991;43.566;27.820;2023-03-16T00:58:36;97827.22;;;7.85;100.00
9905;BME280;4991;43.566;27.820;2023-03-16T01:01:11;97808.38;;;7.80;100.00
9905;BME280;4991;43.566;27.820;2023-03-16T01:03:38;97817.03;;;7.91;100.00
9905;BME280;4991;43.566;27.820;2023-03-16T01:06:17;97823.25;;;7.92;100.00
9905;BME280;4991;43.566;27.820;2023-03-16T01:08:45;97828.28;;;8.07;100.00
9905;BME280;4991;43.566;27.820;2023-03-16T01:11:16;97822.63;;;7.95;100.00
9905;BME280;4991;43.566;27.820;2023-03-16T01:13:42;97834.66;;;8.02;100.00
9905;BME280;4991;43.566;27.820;2023-03-16T01:16:09;97842.72;;;7.94;100.00
9905;BME280;4991;43.566;27.820;2023-03-16T01:18:34;97840.94;;;7.89;100.00
9905;BME280;4991;43.566;27.820;2023-03-16T01:21:01;97837.56;;;7.83;100.00
9905;BME280;4991;43.566;27.820;2023-03-16T01:23:28;97845.81;;;7.78;100.00
9905;BME280;4991;43.566;27.820;2023-03-16T01:25:57;97844.88;;;7.83;100.00
9905;BME280;4991;43.566;27.820;2023-03-16T01:28:25;97841.59;;;7.95;100.00
9905;BME280;4991;43.566;27.820;2023-03-16T01:30:57;97839.38;;;7.97;100.00
9905;BME280;4991;43.566;27.820;2023-03-16T01:33:25;97840.31;;;7.92;100.00
9905;BME280;4991;43.566;27.820;2023-03-16T01:35:59;97839.94;;;8.07;100.00
9905;BME280;4991;43.566;27.820;2023-03-16T01:38:26;97840.97;;;7.98;100.00
9905;BME280;4991;43.566;27.820;2023-03-16T01:40:53;97841.91;;;7.93;100.00
9905;BME280;4991;43.566;27.820;2023-03-16T01:43:20;97843.66;;;7.67;100.00
9905;BME280;4991;43.566;27.820;2023-03-16T01:48:41;97839.81;;;7.68;100.00
9905;BME280;4991;43.566;27.820;2023-03-16T01:51:11;97851.22;;;7.78;100.00
9905;BME280;4991;43.566;27.820;2023-03-16T01:53:39;97840.31;;;7.70;100.00
9905;BME280;4991;43.566;27.820;2023-03-16T01:56:09;97847.00;;;7.64;100.00
9905;BME280;4991;43.566;27.820;2023-03-16T01:58:35;97842.59;;;7.76;100.00
9905;BME280;4991;43.566;27.820;2023-03-16T02:01:03;97846.97;;;7.86;100.00
9905;BME280;4991;43.566;27.820;2023-03-16T02:03:29;97856.53;;;7.83;100.00
9905;BME280;4991;43.566;27.820;2023-03-16T02:06:03;97852.22;;;7.82;100.00
9905;BME280;4991;43.566;27.820;2023-03-16T02:08:31;97847.78;;;7.86;100.00
9905;BME280;4991;43.566;27.820;2023-03-16T02:10:58;97854.00;;;7.87;100.00
9905;BME280;4991;43.566;27.820;2023-03-16T02:13:25;97858.44;;;7.83;100.00
9905;BME280;4991;43.566;27.820;2023-03-16T02:15:54;97855.31;;;7.67;100.00
9905;BME280;4991;43.566;27.820;2023-03-16T02:18:20;97869.03;;;7.71;100.00
9905;BME280;4991;43.566;27.820;2023-03-16T02:23:25;97883.25;;;7.76;100.00
9905;BME280;4991;43.566;27.820;2023-03-16T02:26:12;97883.75;;;7.78;100.00
9905;BME280;4991;43.566;27.820;2023-03-16T02:29:19;97882.63;;;7.79;100.00
9905;BME280;4991;43.566;27.820;2023-03-16T02:31:43;97881.16;;;7.73;100.00
9905;BME280;4991;43.566;27.820;2023-03-16T02:34:09;97882.84;;;7.61;100.00
9905;BME280;4991;43.566;27.820;2023-03-16T02:36:38;97888.25;;;7.61;100.00
9905;BME280;4991;43.566;27.820;2023-03-16T02:39:05;97884.31;;;7.67;100.00
9905;BME280;4991;43.566;27.820;2023-03-16T02:41:31;97871.59;;;7.54;100.00
9905;BME280;4991;43.566;27.820;2023-03-16T02:44:07;97885.69;;;7.64;100.00
9905;BME280;4991;43.566;27.820;2023-03-16T02:46:39;97881.97;;;7.74;100.00
9905;BME280;4991;43.566;27.820;2023-03-16T02:49:12;97882.75;;;7.74;100.00
9905;BME280;4991;43.566;27.820;2023-03-16T02:51:42;97879.16;;;7.79;100.00
9905;BME280;4991;43.566;27.820;2023-03-16T02:54:08;97878.75;;;7.72;100.00
9905;BME280;4991;43.566;27.820;2023-03-16T02:56:33;97870.56;;;7.63;100.00
9905;BME280;4991;43.566;27.820;2023-03-16T02:58:59;97878.69;;;7.63;100.00
9905;BME280;4991;43.566;27.820;2023-03-16T03:01:25;97882.03;;;7.60;100.00
9905;BME280;4991;43.566;27.820;2023-03-16T03:03:51;97881.44;;;7.50;100.00
9905;BME280;4991;43.566;27.820;2023-03-16T03:06:16;97885.34;;;7.57;100.00
9905;BME280;4991;43.566;27.820;2023-03-16T03:08:42;97884.16;;;7.50;100.00
9905;BME280;4991;43.566;27.820;2023-03-16T03:11:08;97889.66;;;7.58;100.00
9905;BME280;4991;43.566;27.820;2023-03-16T03:13:34;97891.25;;;7.59;100.00
9905;BME280;4991;43.566;27.820;2023-03-16T03:16:02;97893.59;;;7.52;100.00
9905;BME280;4991;43.566;27.820;2023-03-16T03:18:28;97897.19;;;7.48;100.00
9905;BME280;4991;43.566;27.820;2023-03-16T03:20:53;97898.84;;;7.35;100.00
9905;BME280;4991;43.566;27.820;2023-03-16T03:23:19;97909.19;;;7.20;100.00
9905;BME280;4991;43.566;27.820;2023-03-16T03:25:45;97913.41;;;7.26;100.00
9905;BME280;4991;43.566;27.820;2023-03-16T03:28:12;97911.78;;;7.25;100.00
9905;BME280;4991;43.566;27.820;2023-03-16T03:30:38;97915.28;;;7.39;100.00
9905;BME280;4991;43.566;27.820;2023-03-16T03:33:04;97921.28;;;7.49;100.00
9905;BME280;4991;43.566;27.820;2023-03-16T03:35:30;97904.53;;;7.47;100.00
9905;BME280;4991;43.566;27.820;2023-03-16T03:37:56;97927.59;;;7.45;100.00
9905;BME280;4991;43.566;27.820;2023-03-16T03:40:21;97927.03;;;7.34;100.00
9905;BME280;4991;43.566;27.820;2023-03-16T03:42:48;97933.25;;;7.35;100.00
9905;BME280;4991;43.566;27.820;2023-03-16T03:45:14;97934.13;;;7.44;100.00
9905;BME280;4991;43.566;27.820;2023-03-16T03:47:41;97945.28;;;7.42;100.00
9905;BME280;4991;43.566;27.820;2023-03-16T03:50:09;97936.84;;;7.44;100.00
9905;BME280;4991;43.566;27.820;2023-03-16T03:52:34;97942.78;;;7.46;100.00
9905;BME280;4991;43.566;27.820;2023-03-16T03:55:00;97934.03;;;7.35;100.00
9905;BME280;4991;43.566;27.820;2023-03-16T03:57:26;97944.13;;;7.57;100.00
9905;BME280;4991;43.566;27.820;2023-03-16T03:59:51;97946.00;;;7.70;100.00
9905;BME280;4991;43.566;27.820;2023-03-16T04:02:17;97945.91;;;7.75;100.00
9905;BME280;4991;43.566;27.820;2023-03-16T04:04:43;97948.09;;;7.73;100.00
9905;BME280;4991;43.566;27.820;2023-03-16T04:07:09;97957.03;;;7.73;100.00
9905;BME280;4991;43.566;27.820;2023-03-16T04:09:36;97948.75;;;7.56;100.00
9905;BME280;4991;43.566;27.820;2023-03-16T04:12:03;97959.97;;;7.63;100.00
9905;BME280;4991;43.566;27.820;2023-03-16T04:14:30;97959.56;;;7.70;100.00
9905;BME280;4991;43.566;27.820;2023-03-16T04:16:56;97962.56;;;7.68;100.00
9905;BME280;4991;43.566;27.820;2023-03-16T04:19:22;97963.88;;;7.71;100.00
9905;BME280;4991;43.566;27.820;2023-03-16T04:21:49;97954.97;;;7.57;100.00
9905;BME280;4991;43.566;27.820;2023-03-16T04:24:16;97984.78;;;7.57;100.00
9905;BME280;4991;43.566;27.820;2023-03-16T04:26:44;97979.03;;;7.72;100.00
9905;BME280;4991;43.566;27.820;2023-03-16T04:29:11;97984.38;;;7.63;100.00
9905;BME280;4991;43.566;27.820;2023-03-16T04:31:39;97986.25;;;7.63;100.00
9905;BME280;4991;43.566;27.820;2023-03-16T04:34:05;97987.47;;;7.57;100.00
9905;BME280;4991;43.566;27.820;2023-03-16T04:36:30;97986.16;;;7.54;100.00
9905;BME280;4991;43.566;27.820;2023-03-16T04:38:57;97988.09;;;7.54;100.00
9905;BME280;4991;43.566;27.820;2023-03-16T04:41:23;97986.16;;;7.54;100.00
9905;BME280;4991;43.566;27.820;2023-03-16T04:43:49;97986.78;;;7.51;100.00
9905;BME280;4991;43.566;27.820;2023-03-16T04:46:14;97997.09;;;7.63;100.00
9905;BME280;4991;43.566;27.820;2023-03-16T04:48:40;97996.53;;;7.52;100.00
9905;BME280;4991;43.566;27.820;2023-03-16T04:51:05;98001.00;;;7.70;100.00
9905;BME280;4991;43.566;27.820;2023-03-16T04:53:31;98005.63;;;7.70;100.00
9905;BME280;4991;43.566;27.820;2023-03-16T04:55:58;98001.81;;;7.71;100.00
9905;BME280;4991;43.566;27.820;2023-03-16T04:58:24;98011.44;;;7.63;100.00
9905;BME280;4991;43.566;27.820;2023-03-16T05:00:54;98013.75;;;7.70;100.00
9905;BME280;4991;43.566;27.820;2023-03-16T05:03:20;98009.06;;;7.62;100.00
9905;BME280;4991;43.566;27.820;2023-03-16T05:05:46;98017.38;;;7.65;100.00
9905;BME280;4991;43.566;27.820;2023-03-16T05:08:12;98015.66;;;7.69;100.00
9905;BME280;4991;43.566;27.820;2023-03-16T05:10:38;98015.28;;;7.62;100.00
9905;BME280;4991;43.566;27.820;2023-03-16T05:13:04;98023.59;;;7.66;100.00
9905;BME280;4991;43.566;27.820;2023-03-16T05:15:30;98023.59;;;7.66;100.00
9905;BME280;4991;43.566;27.820;2023-03-16T05:17:56;98021.28;;;7.59;100.00
9905;BME280;4991;43.566;27.820;2023-03-16T05:20:22;98023.59;;;7.66;100.00
9905;BME280;4991;43.566;27.820;2023-03-16T05:22:48;98036.16;;;7.62;100.00
9905;BME280;4991;43.566;27.820;2023-03-16T05:25:15;98043.25;;;7.58;100.00
9905;BME280;4991;43.566;27.820;2023-03-16T05:27:48;98044.59;;;7.47;100.00
9905;BME280;4991;43.566;27.820;2023-03-16T05:30:15;98048.88;;;7.48;100.00
9905;BME280;4991;43.566;27.820;2023-03-16T05:32:42;98048.31;;;7.51;100.00
9905;BME280;4991;43.566;27.820;2023-03-16T05:35:08;98036.25;;;7.57;100.00
9905;BME280;4991;43.566;27.820;2023-03-16T05:37:38;98048.88;;;7.61;100.00
9905;BME280;4991;43.566;27.820;2023-03-16T05:40:05;98050.97;;;7.64;100.00
9905;BME280;4991;43.566;27.820;2023-03-16T05:42:48;98065.34;;;7.65;100.00
9905;BME280;4991;43.566;27.820;2023-03-16T05:45:15;98060.63;;;7.57;100.00
9905;BME280;4991;43.566;27.820;2023-03-16T05:47:42;98061.81;;;7.64;100.00
9905;BME280;4991;43.566;27.820;2023-03-16T05:50:10;98069.38;;;7.67;100.00
9905;BME280;4991;43.566;27.820;2023-03-16T05:52:39;98068.06;;;7.51;100.00
9905;BME280;4991;43.566;27.820;2023-03-16T05:55:07;98071.28;;;7.53;100.00
9905;BME280;4991;43.566;27.820;2023-03-16T05:57:33;98076.78;;;7.48;100.00
9905;BME280;4991;43.566;27.820;2023-03-16T06:00:00;98077.09;;;7.60;100.00
9905;BME280;4991;43.566;27.820;2023-03-16T06:02:28;98077.59;;;7.62;100.00
9905;BME280;4991;43.566;27.820;2023-03-16T06:04:53;98087.13;;;7.60;100.00
9905;BME280;4991;43.566;27.820;2023-03-16T06:07:19;98082.00;;;7.45;100.00
9905;BME280;4991;43.566;27.820;2023-03-16T06:09:45;98093.53;;;7.50;100.00
9905;BME280;4991;43.566;27.820;2023-03-16T06:12:11;98089.63;;;7.56;100.00
9905;BME280;4991;43.566;27.820;2023-03-16T06:14:36;98084.03;;;7.39;100.00
9905;BME280;4991;43.566;27.820;2023-03-16T06:17:02;98082.91;;;7.40;100.00
9905;BME280;4991;43.566;27.820;2023-03-16T06:19:27;98093.75;;;7.40;100.00
9905;BME280;4991;43.566;27.820;2023-03-16T06:21:53;98086.13;;;7.42;100.00
9905;BME280;4991;43.566;27.820;2023-03-16T06:24:19;98089.22;;;7.36;100.00
9905;BME280;4991;43.566;27.820;2023-03-16T06:26:45;98094.13;;;7.34;100.00
9905;BME280;4991;43.566;27.820;2023-03-16T06:29:11;98094.25;;;7.42;100.00
9905;BME280;4991;43.566;27.820;2023-03-16T06:31:36;98100.09;;;7.49;100.00
9905;BME280;4991;43.566;27.820;2023-03-16T06:34:02;98107.50;;;7.44;100.00
9905;BME280;4991;43.566;27.820;2023-03-16T06:36:28;98095.53;;;7.45;100.00
9905;BME280;4991;43.566;27.820;2023-03-16T06:38:53;98101.78;;;7.45;100.00
9905;BME280;4991;43.566;27.820;2023-03-16T06:41:19;98108.69;;;7.51;100.00
9905;BME280;4991;43.566;27.820;2023-03-16T06:43:45;98110.72;;;7.46;100.00
9905;BME280;4991;43.566;27.820;2023-03-16T06:46:11;98108.38;;;7.53;100.00
9905;BME280;4991;43.566;27.820;2023-03-16T06:48:36;98123.34;;;7.50;100.00
9905;BME280;4991;43.566;27.820;2023-03-16T06:51:02;98114.72;;;7.48;100.00
9905;BME280;4991;43.566;27.820;2023-03-16T06:53:28;98123.34;;;7.50;100.00
9905;BME280;4991;43.566;27.820;2023-03-16T06:55:54;98134.38;;;7.54;100.00
9905;BME280;4991;43.566;27.820;2023-03-16T06:58:19;98133.69;;;7.62;100.00
9905;BME280;4991;43.566;27.820;2023-03-16T07:00:45;98138.78;;;7.50;100.00
9905;BME280;4991;43.566;27.820;2023-03-16T07:03:11;98138.78;;;7.50;100.00
9905;BME280;4991;43.566;27.820;2023-03-16T07:05:37;98137.50;;;7.47;100.00
9905;BME280;4991;43.566;27.820;2023-03-16T07:08:02;98149.31;;;7.38;100.00
9905;BME280;4991;43.566;27.820;2023-03-16T07:10:29;98158.34;;;7.47;100.00
9905;BME280;4991;43.566;27.820;2023-03-16T07:12:55;98156.56;;;7.42;100.00
9905;BME280;4991;43.566;27.820;2023-03-16T07:15:21;98168.38;;;7.33;100.00
9905;BME280;4991;43.566;27.820;2023-03-16T07:17:47;98168.25;;;7.38;100.00
9905;BME280;4991;43.566;27.820;2023-03-16T07:20:12;98159.94;;;7.34;100.00
9905;BME280;4991;43.566;27.820;2023-03-16T07:22:39;98160.13;;;7.24;100.00
9905;BME280;4991;43.566;27.820;2023-03-16T07:25:06;98176.59;;;7.28;100.00
9905;BME280;4991;43.566;27.820;2023-03-16T07:27:32;98153.19;;;7.18;100.00
9905;BME280;4991;43.566;27.820;2023-03-16T07:29:58;98173.97;;;7.36;100.00
9905;BME280;4991;43.566;27.820;2023-03-16T07:32:24;98188.41;;;7.32;100.00
9905;BME280;4991;43.566;27.820;2023-03-16T07:34:50;98186.81;;;7.31;100.00
9905;BME280;4991;43.566;27.820;2023-03-16T07:37:16;98178.06;;;7.20;100.00
9905;BME280;4991;43.566;27.820;2023-03-16T07:39:43;98188.00;;;7.25;100.00
9905;BME280;4991;43.566;27.820;2023-03-16T07:42:09;98185.78;;;7.27;100.00
9905;BME280;4991;43.566;27.820;2023-03-16T07:44:34;98192.31;;;7.26;100.00
9905;BME280;4991;43.566;27.820;2023-03-16T07:47:00;98198.81;;;7.25;100.00
9905;BME280;4991;43.566;27.820;2023-03-16T07:49:26;98203.84;;;7.31;100.00
9905;BME280;4991;43.566;27.820;2023-03-16T07:51:52;98202.03;;;7.27;100.00
9905;BME280;4991;43.566;27.820;2023-03-16T07:54:18;98199.25;;;7.32;100.00
9905;BME280;4991;43.566;27.820;2023-03-16T07:56:44;98197.47;;;7.41;100.00
9905;BME280;4991;43.566;27.820;2023-03-16T07:59:09;98210.44;;;7.44;100.00
9905;BME280;4991;43.566;27.820;2023-03-16T08:01:36;98201.19;;;7.45;100.00
9905;BME280;4991;43.566;27.820;2023-03-16T08:04:02;98202.22;;;7.49;100.00
9905;BME280;4991;43.566;27.820;2023-03-16T08:06:29;98208.63;;;7.53;100.00
9905;BME280;4991;43.566;27.820;2023-03-16T08:08:55;98211.84;;;7.55;100.00
9905;BME280;4991;43.566;27.820;2023-03-16T08:11:20;98206.34;;;7.60;100.00
9905;BME280;4991;43.566;27.820;2023-03-16T08:13:50;98217.13;;;7.46;100.00
9905;BME280;4991;43.566;27.820;2023-03-16T08:16:26;98211.84;;;7.55;100.00
9905;BME280;4991;43.566;27.820;2023-03-16T08:18:55;98215.16;;;7.52;100.00
9905;BME280;4991;43.566;27.820;2023-03-16T08:21:21;98224.00;;;7.57;100.00
9905;BME280;4991;43.566;27.820;2023-03-16T08:23:47;98216.97;;;7.56;100.00
9905;BME280;4991;43.566;27.820;2023-03-16T08:26:19;98223.19;;;7.57;100.00
9905;BME280;4991;43.566;27.820;2023-03-16T08:28:45;98220.16;;;7.45;100.00
9905;BME280;4991;43.566;27.820;2023-03-16T08:31:12;98232.09;;;7.44;100.00
9905;BME280;4991;43.566;27.820;2023-03-16T08:33:42;98227.97;;;7.46;100.00
9905;BME280;4991;43.566;27.820;2023-03-16T08:36:10;98212.41;;;7.38;100.00
9905;BME280;4991;43.566;27.820;2023-03-16T08:38:37;98239.72;;;7.42;100.00
9905;BME280;4991;43.566;27.820;2023-03-16T08:41:04;98250.47;;;7.47;100.00
9905;BME280;4991;43.566;27.820;2023-03-16T08:43:30;98259.53;;;7.56;100.00
9905;BME280;4991;43.566;27.820;2023-03-16T08:45:57;98244.81;;;7.43;100.00
9905;BME280;4991;43.566;27.820;2023-03-16T08:48:24;98256.22;;;7.59;100.00
9905;BME280;4991;43.566;27.820;2023-03-16T08:50:50;98262.25;;;7.56;100.00
9905;BME280;4991;43.566;27.820;2023-03-16T08:53:18;98255.50;;;7.53;100.00
9905;BME280;4991;43.566;27.820;2023-03-16T08:55:43;98253.81;;;7.57;100.00
9905;BME280;4991;43.566;27.820;2023-03-16T08:58:10;98264.38;;;7.72;100.00
9905;BME280;4991;43.566;27.820;2023-03-16T09:00:36;98272.38;;;7.64;100.00
9905;BME280;4991;43.566;27.820;2023-03-16T09:03:02;98276.00;;;7.73;100.00
9905;BME280;4991;43.566;27.820;2023-03-16T09:05:28;98271.41;;;7.73;100.00
9905;BME280;4991;43.566;27.820;2023-03-16T09:07:55;98277.38;;;7.89;100.00
9905;BME280;4991;43.566;27.820;2023-03-16T09:10:21;98281.84;;;7.80;100.00
9905;BME280;4991;43.566;27.820;2023-03-16T09:12:49;98279.06;;;7.85;100.00
9905;BME280;4991;43.566;27.820;2023-03-16T09:15:18;98287.59;;;7.92;100.00
9905;BME280;4991;43.566;27.820;2023-03-16T09:17:46;98289.91;;;7.85;100.00
9905;BME280;4991;43.566;27.820;2023-03-16T09:20:13;98284.44;;;7.71;100.00
9905;BME280;4991;43.566;27.820;2023-03-16T09:22:41;98288.13;;;7.62;100.00
9905;BME280;4991;43.566;27.820;2023-03-16T09:25:07;98293.84;;;7.60;100.00
9905;BME280;4991;43.566;27.820;2023-03-16T09:27:35;98290.06;;;7.75;100.00
9905;BME280;4991;43.566;27.820;2023-03-16T09:30:05;98297.44;;;7.88;100.00
9905;BME280;4991;43.566;27.820;2023-03-16T09:32:32;98302.75;;;7.93;100.00
9905;BME280;4991;43.566;27.820;2023-03-16T09:34:58;98306.06;;;7.90;100.00
9905;BME280;4991;43.566;27.820;2023-03-16T09:37:25;98299.53;;;7.91;100.00
9905;BME280;4991;43.566;27.820;2023-03-16T09:39:51;98304.88;;;7.82;100.00
9905;BME280;4991;43.566;27.820;2023-03-16T09:42:23;98310.94;;;7.74;100.00
9905;BME280;4991;43.566;27.820;2023-03-16T09:45:15;98310.38;;;7.77;100.00
9905;BME280;4991;43.566;27.820;2023-03-16T09:47:44;98312.13;;;7.68;100.00
9905;BME280;4991;43.566;27.820;2023-03-16T09:50:20;98319.81;;;7.80;100.00
9905;BME280;4991;43.566;27.820;2023-03-16T09:53:09;98312.88;;;7.74;100.00
9905;BME280;4991;43.566;27.820;2023-03-16T09:55:41;98318.47;;;7.64;100.00
9905;BME280;4991;43.566;27.820;2023-03-16T09:58:19;98321.91;;;7.83;100.00
9905;BME280;4991;43.566;27.820;2023-03-16T10:06:13;98328.34;;;7.87;100.00
9905;BME280;4991;43.566;27.820;2023-03-16T10:11:28;98337.81;;;8.03;100.00
9905;BME280;4991;43.566;27.820;2023-03-16T10:19:30;98335.50;;;7.97;100.00
9905;BME280;4991;43.566;27.820;2023-03-16T10:21:49;98347.03;;;7.88;100.00
9905;BME280;4991;43.566;27.820;2023-03-16T10:24:32;98336.09;;;7.94;100.00
9905;BME280;4991;43.566;27.820;2023-03-16T10:27:02;98329.66;;;7.89;100.00
9905;BME280;4991;43.566;27.820;2023-03-16T10:29:31;98339.44;;;7.72;100.00
9905;BME280;4991;43.566;27.820;2023-03-16T10:32:10;98340.88;;;7.83;100.00
9905;BME280;4991;43.566;27.820;2023-03-16T10:34:36;98339.88;;;7.79;100.00
9905;BME280;4991;43.566;27.820;2023-03-16T10:37:03;98336.50;;;7.87;100.00
9905;BME280;4991;43.566;27.820;2023-03-16T10:39:35;98341.91;;;7.87;100.00
9905;BME280;4991;43.566;27.820;2023-03-16T10:42:01;98343.63;;;7.97;100.00
9905;BME280;4991;43.566;27.820;2023-03-16T10:44:28;98342.03;;;8.09;100.00
9905;BME280;4991;43.566;27.820;2023-03-16T10:47:03;98345.78;;;8.13;100.00
9905;BME280;4991;43.566;27.820;2023-03-16T10:52:10;98343.22;;;7.89;100.00
9905;BME280;4991;43.566;27.820;2023-03-16T10:54:38;98353.19;;;7.94;100.00
9905;BME280;4991;43.566;27.820;2023-03-16T10:59:54;98344.94;;;7.85;100.00
9905;BME280;4991;43.566;27.820;2023-03-16T11:02:24;98348.41;;;7.86;100.00
9905;BME280;4991;43.566;27.820;2023-03-16T11:04:55;98343.00;;;7.86;100.00
9905;BME280;4991;43.566;27.820;2023-03-16T11:07:22;98342.03;;;7.96;100.00
9905;BME280;4991;43.566;27.820;2023-03-16T11:09:53;98348.22;;;7.82;100.00
9905;BME280;4991;43.566;27.820;2023-03-16T11:12:30;98353.53;;;7.74;100.00
9905;BME280;4991;43.566;27.820;2023-03-16T11:15:25;98349.44;;;7.90;100.00
9905;BME280;4991;43.566;27.820;2023-03-16T11:17:52;98346.91;;;7.80;100.00
9905;BME280;4991;43.566;27.820;2023-03-16T11:20:26;98346.22;;;7.88;100.00
9905;BME280;4991;43.566;27.820;2023-03-16T11:22:53;98339.72;;;8.03;100.00
9905;BME280;4991;43.566;27.820;2023-03-16T11:25:32;98346.56;;;8.00;100.00
9905;BME280;4991;43.566;27.820;2023-03-16T11:28:08;98349.91;;;7.78;100.00
9905;BME280;4991;43.566;27.820;2023-03-16T11:31:05;98348.69;;;7.71;100.00
9905;BME280;4991;43.566;27.820;2023-03-16T11:33:33;98350.91;;;7.69;100.00
9905;BME280;4991;43.566;27.820;2023-03-16T11:41:08;98366.53;;;6.55;100.00
9905;BME280;4991;43.566;27.820;2023-03-16T11:46:59;98376.13;;;6.19;100.00
9905;BME280;4991;43.566;27.820;2023-03-16T11:49:39;98373.63;;;5.99;100.00
9905;BME280;4991;43.566;27.820;2023-03-16T12:15:14;98396.72;;;5.43;100.00
9905;BME280;4991;43.566;27.820;2023-03-16T12:17:44;98410.78;;;5.40;100.00
9905;BME280;4991;43.566;27.820;2023-03-16T12:20:21;98402.56;;;5.60;100.00
9905;BME280;4991;43.566;27.820;2023-03-16T12:22:51;98410.09;;;5.63;100.00
9905;BME280;4991;43.566;27.820;2023-03-16T12:25:22;98412.25;;;5.61;100.00
9905;BME280;4991;43.566;27.820;2023-03-16T12:27:54;98418.72;;;5.65;100.00
9905;BME280;4991;43.566;27.820;2023-03-16T12:30:34;98410.16;;;5.53;100.00
9905;BME280;4991;43.566;27.820;2023-03-16T12:33:10;98414.81;;;5.43;100.00
9905;BME280;4991;43.566;27.820;2023-03-16T12:36:16;98422.09;;;5.47;100.00
9905;BME280;4991;43.566;27.820;2023-03-16T12:42:05;98432.81;;;5.57;100.00
9905;BME280;4991;43.566;27.820;2023-03-16T12:44:39;98420.16;;;5.53;100.00
9905;BME280;4991;43.566;27.820;2023-03-16T12:49:39;98432.63;;;5.49;100.00
9905;BME280;4991;43.566;27.820;2023-03-16T12:52:08;98430.94;;;5.53;100.00
9905;BME280;4991;43.566;27.820;2023-03-16T12:54:34;98433.09;;;5.56;100.00
9905;BME280;4991;43.566;27.820;2023-03-16T12:57:05;98439.84;;;5.58;100.00
9905;BME280;4991;43.566;27.820;2023-03-16T12:59:54;98449.19;;;5.71;100.00
9905;BME280;4991;43.566;27.820;2023-03-16T13:02:30;98442.84;;;5.52;100.00
9905;BME280;4991;43.566;27.820;2023-03-16T13:07:35;98450.34;;;5.60;100.00
9905;BME280;4991;43.566;27.820;2023-03-16T13:10:08;98454.34;;;5.67;100.00
9905;BME280;4991;43.566;27.820;2023-03-16T13:12:36;98457.03;;;5.67;100.00
9905;BME280;4991;43.566;27.820;2023-03-16T13:15:27;98452.00;;;5.56;100.00
9905;BME280;4991;43.566;27.820;2023-03-16T13:18:26;98458.25;;;5.51;100.00
9905;BME280;4991;43.566;27.820;2023-03-16T13:20:56;98462.34;;;5.44;100.00
9905;BME280;4991;43.566;27.820;2023-03-16T13:23:28;98456.75;;;5.30;100.00
9905;BME280;4991;43.566;27.820;2023-03-16T13:26:15;98464.84;;;5.30;100.00
9905;BME280;4991;43.566;27.820;2023-03-16T13:28:44;98471.84;;;5.31;100.00
9905;BME280;4991;43.566;27.820;2023-03-16T13:31:40;98474.00;;;5.29;100.00
9905;BME280;4991;43.566;27.820;2023-03-16T13:34:12;98484.81;;;5.24;100.00
9905;BME280;4991;43.566;27.820;2023-03-16T13:36:40;98478.94;;;5.17;100.00
9905;BME280;4991;43.566;27.820;2023-03-16T13:39:12;98483.50;;;5.21;100.00
9905;BME280;4991;43.566;27.820;2023-03-16T13:41:39;98482.94;;;5.24;100.00
9905;BME280;4991;43.566;27.820;2023-03-16T13:44:13;98491.88;;;5.20;100.00
9905;BME280;4991;43.566;27.820;2023-03-16T13:46:39;98495.94;;;5.12;100.00
9905;BME280;4991;43.566;27.820;2023-03-16T13:49:05;98491.66;;;5.06;100.00
9905;BME280;4991;43.566;27.820;2023-03-16T13:51:33;98500.28;;;5.08;100.00
9905;BME280;4991;43.566;27.820;2023-03-16T13:54:20;98495.72;;;5.09;100.00
9905;BME280;4991;43.566;27.820;2023-03-16T13:56:48;98494.63;;;5.05;100.00
9905;BME280;4991;43.566;27.820;2023-03-16T13:59:14;98500.84;;;5.05;100.00
9905;BME280;4991;43.566;27.820;2023-03-16T14:01:43;98497.88;;;5.07;100.00
9905;BME280;4991;43.566;27.820;2023-03-16T14:04:11;98499.22;;;5.04;100.00
9905;BME280;4991;43.566;27.820;2023-03-16T14:06:54;98504.34;;;5.01;100.00
9905;BME280;4991;43.566;27.820;2023-03-16T14:09:27;98503.28;;;5.02;100.00
9905;BME280;4991;43.566;27.820;2023-03-16T14:11:54;98504.34;;;5.01;100.00
9905;BME280;4991;43.566;27.820;2023-03-16T14:14:30;98512.47;;;4.96;100.00
9905;BME280;4991;43.566;27.820;2023-03-16T14:17:02;98520.22;;;5.12;100.00
9905;BME280;4991;43.566;27.820;2023-03-16T14:19:30;98518.66;;;5.01;100.00
9905;BME280;4991;43.566;27.820;2023-03-16T14:22:11;98517.34;;;4.89;100.00
9905;BME280;4991;43.566;27.820;2023-03-16T14:24:37;98519.22;;;4.98;100.00